KFNT

Bishop International Airport

Flint, Michigan, USA
METAR KFNT 232153Z 26012G19KT 10SM OVC007 07/06 A3010 RMK AO2 SLP199 T00670056
Observed Flight Rules
Feb-23 @ 21:53 UTC (44 minutes ago) Instrument Flight Rules
Wind Visibility Clouds
260° at 12 knots
 Gusting to 19 knots
10 miles
  • Overcast at 700' AGL
Temperatures Readings
Current 7°C / 45°F
Dewpoint 6°C / 43°F
Humidity 93%
Altimeter 30.1" Hg
Pressure 1019.9 hPa
Elevation 233
METAR KFNT 232153Z 26012G19KT 10SM OVC007 07/06 A3010 RMK AO2 SLP199 T00670056
Observed Flight Rules
Feb-23 @ 21:53 UTC
(44 minutes ago)
IFR
Wind Visibility
260° at 12 knots
 Gusting to 19 knots
10 miles
Clouds
  • Overcast at 700' AGL
Temperature Dewpoint
7°C / 45°F 6°C / 43°F
Humidity Altimeter Pressure
93% 30.1" Hg 1019.9 hPa